Osterville, MA (02655)

1:40 AM EDT on March 27, 2015 (GMT -0400)
Centerville | | Change Station
CLOSE
Current Station
Personal Weather Station
Location: Massachusetts, MA
Elevation: 56 ft
Nearby Weather Stations

Elev 56 ft 41.67 °N, 70.37 °W | Updated 8 seconds ago

Rain
Rain
42.0 °F
Feels Like 42 °F
N
2.0
Wind Variable Wind from NNE
Gusts 7.0 mph

Today
High -- | Low -- °F
--% Chance of Precip.
Yesterday
High -- | Low -- °F
Precip. -- in
6:33 AM 7:01 PM
Waxing Crescent, 49% visible
Pressure 29.62 in
Visibility 4.0 miles
Clouds Overcast 300 ft
Windchill 42 °F
Dew Point 41 °F
Humidity 96%
Rainfall 0.36 in
Snow Depth Not available.
UV 0 out of 12
Pollen .90 out of 12
Air Quality Not available.
Flu Activity Not available.
SPECI KHYA 270510Z AUTO 35010KT 4SM -RA BR OVC003 06/06 A2962 RMK AO2 P0002 T00560056

More Conditions Fewer Conditions

Pressure 29.62 in
Visibility 4.0 miles
Clouds Overcast 300 ft
Windchill 42 °F
Dew Point 41 °F
Humidity 96%
Rainfall 0.36 in
Snow Depth Not available.
UV 0 out of 12
Pollen .90 out of 12
Air Quality Not available.
Flu Activity Not available.
SPECI KHYA 270510Z AUTO 35010KT 4SM -RA BR OVC003 06/06 A2962 RMK AO2 P0002 T00560056

More Conditions Fewer Conditions

10-Day Weather Forecast

Almanac

Astronomy

Mar. 27, 2015 Rise Set
Actual Time
Civil Twilight
Nautical Twilight
Astronomical Twilight
Moon
Length of Visible Light
Length of Day
Tomorrow will be .
, % of the Moon is Illuminated

Today's Extremes

State Highs State Lows

Community

WunderPhotos

Upload Photos

1,808,698 photos uploaded!

WunderBlogs® & News

Nearby

Air Quality

  Air Quality AQ Index Pollutant
Not available.

Snow Depth

Station Depth Elevation

Earthquake Activity

City Distance Mag. Time & Date
Minimum magnitude displayed is 2.5.

Coastal Water Temperatures

Place Temperature

Stations

Nearby Weather Stations

Station Location Temp. Windchill Dew Point Humidity Wind Precip. Elev Updated Type